sensor_id;sensor_type;location;lat;lon;timestamp;P1;durP1;ratioP1;P2;durP2;ratioP2
16139;SDS011;8175;49.326;12.690;2023-04-24T00:01:41;5.00;;;4.00;;
16139;SDS011;8175;49.326;12.690;2023-04-24T00:04:07;4.20;;;3.80;;
16139;SDS011;8175;49.326;12.690;2023-04-24T00:06:35;7.70;;;3.83;;
16139;SDS011;8175;49.326;12.690;2023-04-24T00:09:07;4.70;;;4.07;;
16139;SDS011;8175;49.326;12.690;2023-04-24T00:11:36;5.47;;;4.00;;
16139;SDS011;8175;49.326;12.690;2023-04-24T00:14:02;7.03;;;4.27;;
16139;SDS011;8175;49.326;12.690;2023-04-24T00:16:28;8.00;;;4.47;;
16139;SDS011;8175;49.326;12.690;2023-04-24T00:18:53;6.30;;;4.93;;
16139;SDS011;8175;49.326;12.690;2023-04-24T00:21:19;5.13;;;4.63;;
16139;SDS011;8175;49.326;12.690;2023-04-24T00:23:46;4.93;;;4.10;;
16139;SDS011;8175;49.326;12.690;2023-04-24T00:26:12;6.27;;;4.57;;
16139;SDS011;8175;49.326;12.690;2023-04-24T00:28:38;5.60;;;4.93;;
16139;SDS011;8175;49.326;12.690;2023-04-24T00:31:03;5.77;;;5.10;;
16139;SDS011;8175;49.326;12.690;2023-04-24T00:33:29;6.03;;;5.07;;
16139;SDS011;8175;49.326;12.690;2023-04-24T00:35:54;6.97;;;5.73;;
16139;SDS011;8175;49.326;12.690;2023-04-24T00:38:20;6.37;;;5.77;;
16139;SDS011;8175;49.326;12.690;2023-04-24T00:40:47;6.33;;;5.73;;
16139;SDS011;8175;49.326;12.690;2023-04-24T00:43:14;6.90;;;6.30;;
16139;SDS011;8175;49.326;12.690;2023-04-24T00:45:40;8.73;;;5.93;;
16139;SDS011;8175;49.326;12.690;2023-04-24T00:48:06;6.90;;;6.20;;
16139;SDS011;8175;49.326;12.690;2023-04-24T00:50:32;6.87;;;5.93;;
16139;SDS011;8175;49.326;12.690;2023-04-24T00:53:00;6.90;;;6.20;;
16139;SDS011;8175;49.326;12.690;2023-04-24T00:55:26;8.07;;;6.50;;
16139;SDS011;8175;49.326;12.690;2023-04-24T00:57:51;8.63;;;6.20;;
16139;SDS011;8175;49.326;12.690;2023-04-24T01:00:17;8.40;;;6.77;;
16139;SDS011;8175;49.326;12.690;2023-04-24T01:02:44;6.83;;;5.90;;
16139;SDS011;8175;49.326;12.690;2023-04-24T01:05:13;7.87;;;6.53;;
16139;SDS011;8175;49.326;12.690;2023-04-24T01:07:43;7.60;;;6.80;;
16139;SDS011;8175;49.326;12.690;2023-04-24T01:10:13;7.57;;;6.30;;
16139;SDS011;8175;49.326;12.690;2023-04-24T01:12:39;7.60;;;6.10;;
16139;SDS011;8175;49.326;12.690;2023-04-24T01:15:05;6.93;;;5.93;;
16139;SDS011;8175;49.326;12.690;2023-04-24T01:17:32;8.27;;;6.83;;
16139;SDS011;8175;49.326;12.690;2023-04-24T01:19:58;6.87;;;6.13;;
16139;SDS011;8175;49.326;12.690;2023-04-24T01:22:25;7.00;;;6.30;;
16139;SDS011;8175;49.326;12.690;2023-04-24T01:24:52;7.93;;;7.07;;
16139;SDS011;8175;49.326;12.690;2023-04-24T01:27:18;9.60;;;7.47;;
16139;SDS011;8175;49.326;12.690;2023-04-24T01:29:45;7.70;;;7.00;;
16139;SDS011;8175;49.326;12.690;2023-04-24T01:32:14;8.90;;;8.00;;
16139;SDS011;8175;49.326;12.690;2023-04-24T01:34:40;8.83;;;6.83;;
16139;SDS011;8175;49.326;12.690;2023-04-24T01:37:05;7.70;;;6.80;;
16139;SDS011;8175;49.326;12.690;2023-04-24T01:39:31;8.33;;;6.83;;
16139;SDS011;8175;49.326;12.690;2023-04-24T01:41:58;9.00;;;8.10;;
16139;SDS011;8175;49.326;12.690;2023-04-24T01:44:27;10.20;;;7.13;;
16139;SDS011;8175;49.326;12.690;2023-04-24T05:06:34;13.10;;;10.63;;
16139;SDS011;8175;49.326;12.690;2023-04-24T05:09:00;12.47;;;10.60;;
16139;SDS011;8175;49.326;12.690;2023-04-24T05:11:25;11.60;;;10.17;;
16139;SDS011;8175;49.326;12.690;2023-04-24T05:13:51;10.77;;;9.40;;
16139;SDS011;8175;49.326;12.690;2023-04-24T05:16:16;11.23;;;9.53;;
16139;SDS011;8175;49.326;12.690;2023-04-24T05:18:42;9.90;;;8.70;;
16139;SDS011;8175;49.326;12.690;2023-04-24T05:21:08;10.97;;;8.33;;
16139;SDS011;8175;49.326;12.690;2023-04-24T05:23:33;8.97;;;6.60;;
16139;SDS011;8175;49.326;12.690;2023-04-24T05:25:59;9.03;;;6.20;;
16139;SDS011;8175;49.326;12.690;2023-04-24T05:28:25;8.23;;;6.13;;
16139;SDS011;8175;49.326;12.690;2023-04-24T05:30:53;5.60;;;5.03;;
16139;SDS011;8175;49.326;12.690;2023-04-24T05:33:20;7.23;;;6.03;;
16139;SDS011;8175;49.326;12.690;2023-04-24T05:35:47;6.47;;;5.37;;
16139;SDS011;8175;49.326;12.690;2023-04-24T05:38:13;6.70;;;5.83;;
16139;SDS011;8175;49.326;12.690;2023-04-24T05:40:42;7.70;;;5.80;;
16139;SDS011;8175;49.326;12.690;2023-04-24T05:43:08;5.97;;;5.40;;
16139;SDS011;8175;49.326;12.690;2023-04-24T05:45:33;7.30;;;6.60;;
16139;SDS011;8175;49.326;12.690;2023-04-24T05:48:01;7.57;;;6.70;;
16139;SDS011;8175;49.326;12.690;2023-04-24T05:50:27;7.37;;;6.60;;
16139;SDS011;8175;49.326;12.690;2023-04-24T05:52:52;9.23;;;6.87;;
16139;SDS011;8175;49.326;12.690;2023-04-24T05:55:18;8.67;;;7.77;;
16139;SDS011;8175;49.326;12.690;2023-04-24T05:57:44;7.17;;;6.30;;
16139;SDS011;8175;49.326;12.690;2023-04-24T06:00:10;8.10;;;7.30;;
16139;SDS011;8175;49.326;12.690;2023-04-24T06:02:39;8.87;;;7.70;;
16139;SDS011;8175;49.326;12.690;2023-04-24T06:05:05;8.53;;;6.77;;
16139;SDS011;8175;49.326;12.690;2023-04-24T06:07:31;9.70;;;6.57;;
16139;SDS011;8175;49.326;12.690;2023-04-24T06:09:56;9.07;;;7.40;;
16139;SDS011;8175;49.326;12.690;2023-04-24T06:12:22;6.30;;;5.70;;
16139;SDS011;8175;49.326;12.690;2023-04-24T06:14:48;6.33;;;5.70;;
16139;SDS011;8175;49.326;12.690;2023-04-24T06:17:14;6.93;;;5.93;;
16139;SDS011;8175;49.326;12.690;2023-04-24T06:19:40;7.03;;;6.03;;
16139;SDS011;8175;49.326;12.690;2023-04-24T06:22:06;5.67;;;5.13;;
16139;SDS011;8175;49.326;12.690;2023-04-24T06:24:33;6.93;;;6.13;;
16139;SDS011;8175;49.326;12.690;2023-04-24T06:26:59;6.23;;;4.90;;
16139;SDS011;8175;49.326;12.690;2023-04-24T06:29:25;5.90;;;5.40;;
16139;SDS011;8175;49.326;12.690;2023-04-24T06:31:51;5.40;;;4.90;;
16139;SDS011;8175;49.326;12.690;2023-04-24T06:34:16;4.80;;;4.17;;
16139;SDS011;8175;49.326;12.690;2023-04-24T06:36:42;5.30;;;4.80;;
16139;SDS011;8175;49.326;12.690;2023-04-24T06:39:07;4.60;;;4.20;;
16139;SDS011;8175;49.326;12.690;2023-04-24T06:41:33;4.50;;;3.87;;
16139;SDS011;8175;49.326;12.690;2023-04-24T06:43:59;4.40;;;3.80;;
16139;SDS011;8175;49.326;12.690;2023-04-24T06:46:25;4.80;;;4.13;;
16139;SDS011;8175;49.326;12.690;2023-04-24T06:48:52;4.83;;;4.43;;
16139;SDS011;8175;49.326;12.690;2023-04-24T06:51:21;9.77;;;8.67;;
16139;SDS011;8175;49.326;12.690;2023-04-24T06:53:51;4.87;;;3.87;;
16139;SDS011;8175;49.326;12.690;2023-04-24T06:56:18;5.53;;;4.97;;
16139;SDS011;8175;49.326;12.690;2023-04-24T06:58:44;3.87;;;3.57;;
16139;SDS011;8175;49.326;12.690;2023-04-24T07:01:10;4.50;;;4.10;;
16139;SDS011;8175;49.326;12.690;2023-04-24T07:03:36;4.70;;;4.07;;
16139;SDS011;8175;49.326;12.690;2023-04-24T07:06:02;4.03;;;3.00;;
16139;SDS011;8175;49.326;12.690;2023-04-24T07:08:28;4.73;;;3.53;;
16139;SDS011;8175;49.326;12.690;2023-04-24T07:10:55;6.30;;;4.43;;
16139;SDS011;8175;49.326;12.690;2023-04-24T07:13:21;3.53;;;3.23;;
16139;SDS011;8175;49.326;12.690;2023-04-24T07:15:47;4.00;;;3.57;;
16139;SDS011;8175;49.326;12.690;2023-04-24T07:18:15;3.80;;;3.17;;
16139;SDS011;8175;49.326;12.690;2023-04-24T07:20:41;3.77;;;3.47;;
16139;SDS011;8175;49.326;12.690;2023-04-24T07:23:07;3.90;;;2.80;;
16139;SDS011;8175;49.326;12.690;2023-04-24T07:25:33;2.67;;;2.47;;
16139;SDS011;8175;49.326;12.690;2023-04-24T07:27:58;2.50;;;2.30;;
16139;SDS011;8175;49.326;12.690;2023-04-24T07:30:24;3.00;;;2.70;;
16139;SDS011;8175;49.326;12.690;2023-04-24T07:32:50;2.43;;;2.23;;
16139;SDS011;8175;49.326;12.690;2023-04-24T07:35:16;2.50;;;2.30;;
16139;SDS011;8175;49.326;12.690;2023-04-24T07:37:42;3.93;;;2.10;;
16139;SDS011;8175;49.326;12.690;2023-04-24T07:40:11;2.40;;;2.17;;
16139;SDS011;8175;49.326;12.690;2023-04-24T07:42:40;2.77;;;2.57;;
16139;SDS011;8175;49.326;12.690;2023-04-24T07:45:06;2.07;;;1.90;;
16139;SDS011;8175;49.326;12.690;2023-04-24T07:47:32;3.73;;;1.93;;
16139;SDS011;8175;49.326;12.690;2023-04-24T07:49:58;2.60;;;2.40;;
16139;SDS011;8175;49.326;12.690;2023-04-24T07:52:24;2.50;;;1.97;;
16139;SDS011;8175;49.326;12.690;2023-04-24T07:54:50;2.27;;;2.07;;
16139;SDS011;8175;49.326;12.690;2023-04-24T07:57:17;2.37;;;2.00;;
16139;SDS011;8175;49.326;12.690;2023-04-24T07:59:43;2.90;;;2.20;;
16139;SDS011;8175;49.326;12.690;2023-04-24T08:02:09;2.17;;;1.90;;
16139;SDS011;8175;49.326;12.690;2023-04-24T08:04:34;1.73;;;1.63;;
16139;SDS011;8175;49.326;12.690;2023-04-24T08:07:00;2.27;;;2.07;;
16139;SDS011;8175;49.326;12.690;2023-04-24T08:09:26;2.33;;;1.90;;
16139;SDS011;8175;49.326;12.690;2023-04-24T08:11:51;2.00;;;1.80;;
16139;SDS011;8175;49.326;12.690;2023-04-24T08:14:18;2.10;;;1.90;;
16139;SDS011;8175;49.326;12.690;2023-04-24T08:16:43;2.10;;;2.00;;
16139;SDS011;8175;49.326;12.690;2023-04-24T08:19:09;1.90;;;1.80;;
16139;SDS011;8175;49.326;12.690;2023-04-24T08:21:35;1.90;;;1.80;;
16139;SDS011;8175;49.326;12.690;2023-04-24T08:24:00;2.73;;;1.90;;
16139;SDS011;8175;49.326;12.690;2023-04-24T08:26:30;1.70;;;1.60;;
16139;SDS011;8175;49.326;12.690;2023-04-24T08:28:55;3.00;;;2.17;;
16139;SDS011;8175;49.326;12.690;2023-04-24T08:31:21;1.90;;;1.80;;
16139;SDS011;8175;49.326;12.690;2023-04-24T08:33:47;3.00;;;1.93;;
16139;SDS011;8175;49.326;12.690;2023-04-24T08:36:13;1.77;;;1.67;;
16139;SDS011;8175;49.326;12.690;2023-04-24T08:38:39;2.80;;;1.73;;
16139;SDS011;8175;49.326;12.690;2023-04-24T08:41:05;1.60;;;1.50;;
16139;SDS011;8175;49.326;12.690;2023-04-24T08:43:32;2.20;;;2.00;;
16139;SDS011;8175;49.326;12.690;2023-04-24T08:46:01;1.90;;;1.80;;
16139;SDS011;8175;49.326;12.690;2023-04-24T08:48:28;1.90;;;1.80;;
16139;SDS011;8175;49.326;12.690;2023-04-24T08:50:55;2.10;;;1.63;;
16139;SDS011;8175;49.326;12.690;2023-04-24T08:53:22;2.80;;;1.50;;
16139;SDS011;8175;49.326;12.690;2023-04-24T08:55:50;2.00;;;1.10;;
16139;SDS011;8175;49.326;12.690;2023-04-24T08:58:16;2.20;;;1.67;;
16139;SDS011;8175;49.326;12.690;2023-04-24T09:00:43;3.60;;;2.80;;
16139;SDS011;8175;49.326;12.690;2023-04-24T09:03:12;2.10;;;1.60;;
16139;SDS011;8175;49.326;12.690;2023-04-24T09:05:46;7.87;;;5.60;;
16139;SDS011;8175;49.326;12.690;2023-04-24T09:08:13;2.20;;;2.03;;
16139;SDS011;8175;49.326;12.690;2023-04-24T09:10:40;6.43;;;4.00;;
16139;SDS011;8175;49.326;12.690;2023-04-24T09:13:06;1.63;;;1.23;;
16139;SDS011;8175;49.326;12.690;2023-04-24T09:15:34;0.60;;;0.60;;
16139;SDS011;8175;49.326;12.690;2023-04-24T09:18:00;1.43;;;1.00;;
16139;SDS011;8175;49.326;12.690;2023-04-24T09:20:26;1.90;;;1.10;;
16139;SDS011;8175;49.326;12.690;2023-04-24T09:22:53;1.37;;;1.10;;
16139;SDS011;8175;49.326;12.690;2023-04-24T09:25:20;1.23;;;1.13;;
16139;SDS011;8175;49.326;12.690;2023-04-24T09:27:46;2.10;;;1.40;;
16139;SDS011;8175;49.326;12.690;2023-04-24T09:30:12;2.67;;;1.77;;
16139;SDS011;8175;49.326;12.690;2023-04-24T09:32:38;1.87;;;1.50;;
16139;SDS011;8175;49.326;12.690;2023-04-24T09:35:12;2.07;;;1.87;;
16139;SDS011;8175;49.326;12.690;2023-04-24T09:37:40;2.37;;;2.13;;
16139;SDS011;8175;49.326;12.690;2023-04-24T09:40:20;2.00;;;1.80;;
16139;SDS011;8175;49.326;12.690;2023-04-24T09:42:54;2.33;;;1.77;;
16139;SDS011;8175;49.326;12.690;2023-04-24T09:45:21;4.63;;;2.60;;
16139;SDS011;8175;49.326;12.690;2023-04-24T09:47:52;2.50;;;2.07;;
16139;SDS011;8175;49.326;12.690;2023-04-24T09:50:20;1.73;;;1.60;;
16139;SDS011;8175;49.326;12.690;2023-04-24T09:52:47;1.77;;;1.60;;
16139;SDS011;8175;49.326;12.690;2023-04-24T09:55:22;3.63;;;2.37;;
16139;SDS011;8175;49.326;12.690;2023-04-24T09:57:51;1.70;;;1.60;;
16139;SDS011;8175;49.326;12.690;2023-04-24T10:00:23;2.77;;;1.70;;
16139;SDS011;8175;49.326;12.690;2023-04-24T10:02:50;2.23;;;1.30;;
16139;SDS011;8175;49.326;12.690;2023-04-24T10:05:22;1.87;;;1.13;;
16139;SDS011;8175;49.326;12.690;2023-04-24T10:07:48;2.87;;;1.40;;
16139;SDS011;8175;49.326;12.690;2023-04-24T10:10:14;1.10;;;1.00;;
16139;SDS011;8175;49.326;12.690;2023-04-24T10:12:40;1.17;;;1.07;;
16139;SDS011;8175;49.326;12.690;2023-04-24T10:15:07;1.93;;;1.60;;
16139;SDS011;8175;49.326;12.690;2023-04-24T10:17:35;1.90;;;1.57;;
16139;SDS011;8175;49.326;12.690;2023-04-24T10:20:01;2.27;;;1.60;;
16139;SDS011;8175;49.326;12.690;2023-04-24T10:22:27;1.77;;;1.67;;
16139;SDS011;8175;49.326;12.690;2023-04-24T10:24:55;1.70;;;1.50;;
16139;SDS011;8175;49.326;12.690;2023-04-24T10:27:22;1.20;;;1.10;;
16139;SDS011;8175;49.326;12.690;2023-04-24T10:29:49;1.30;;;1.20;;
16139;SDS011;8175;49.326;12.690;2023-04-24T10:32:18;4.37;;;1.70;;
16139;SDS011;8175;49.326;12.690;2023-04-24T10:34:43;1.50;;;1.40;;
16139;SDS011;8175;49.326;12.690;2023-04-24T10:37:10;2.70;;;1.47;;
16139;SDS011;8175;49.326;12.690;2023-04-24T10:39:35;1.07;;;1.03;;
16139;SDS011;8175;49.326;12.690;2023-04-24T10:42:12;1.77;;;1.43;;
16139;SDS011;8175;49.326;12.690;2023-04-24T10:44:41;1.43;;;1.33;;
16139;SDS011;8175;49.326;12.690;2023-04-24T10:47:12;1.50;;;1.40;;
16139;SDS011;8175;49.326;12.690;2023-04-24T10:49:39;1.80;;;1.37;;
16139;SDS011;8175;49.326;12.690;2023-04-24T10:52:05;2.90;;;1.63;;
16139;SDS011;8175;49.326;12.690;2023-04-24T10:59:51;1.40;;;1.30;;
16139;SDS011;8175;49.326;12.690;2023-04-24T11:02:38;1.17;;;0.90;;
16139;SDS011;8175;49.326;12.690;2023-04-24T11:05:05;1.37;;;1.20;;
16139;SDS011;8175;49.326;12.690;2023-04-24T11:10:39;1.20;;;1.10;;
16139;SDS011;8175;49.326;12.690;2023-04-24T11:13:15;1.50;;;1.40;;
16139;SDS011;8175;49.326;12.690;2023-04-24T11:15:42;1.30;;;1.20;;
16139;SDS011;8175;49.326;12.690;2023-04-24T11:18:12;1.20;;;1.10;;
16139;SDS011;8175;49.326;12.690;2023-04-24T11:20:41;1.20;;;1.10;;
16139;SDS011;8175;49.326;12.690;2023-04-24T11:23:08;1.43;;;1.13;;
16139;SDS011;8175;49.326;12.690;2023-04-24T11:25:34;1.30;;;1.20;;
16139;SDS011;8175;49.326;12.690;2023-04-24T11:28:04;1.10;;;1.00;;
16139;SDS011;8175;49.326;12.690;2023-04-24T11:30:31;1.20;;;1.10;;
16139;SDS011;8175;49.326;12.690;2023-04-24T11:33:01;1.37;;;1.10;;
16139;SDS011;8175;49.326;12.690;2023-04-24T11:35:29;1.23;;;1.13;;
16139;SDS011;8175;49.326;12.690;2023-04-24T11:37:55;1.50;;;1.10;;
16139;SDS011;8175;49.326;12.690;2023-04-24T11:40:21;1.53;;;1.20;;
16139;SDS011;8175;49.326;12.690;2023-04-24T11:42:48;1.60;;;1.20;;
16139;SDS011;8175;49.326;12.690;2023-04-24T11:45:22;1.53;;;1.30;;
16139;SDS011;8175;49.326;12.690;2023-04-24T11:47:48;1.30;;;1.20;;
16139;SDS011;8175;49.326;12.690;2023-04-24T11:50:14;1.50;;;1.40;;
16139;SDS011;8175;49.326;12.690;2023-04-24T11:52:43;1.33;;;1.23;;
16139;SDS011;8175;49.326;12.690;2023-04-24T11:57:52;1.20;;;1.00;;
16139;SDS011;8175;49.326;12.690;2023-04-24T12:00:23;1.30;;;1.20;;
16139;SDS011;8175;49.326;12.690;2023-04-24T12:03:09;1.03;;;1.03;;
16139;SDS011;8175;49.326;12.690;2023-04-24T12:05:36;1.30;;;1.20;;
16139;SDS011;8175;49.326;12.690;2023-04-24T12:08:02;1.67;;;1.20;;
16139;SDS011;8175;49.326;12.690;2023-04-24T12:10:29;1.20;;;1.10;;
16139;SDS011;8175;49.326;12.690;2023-04-24T12:12:56;1.20;;;1.10;;
16139;SDS011;8175;49.326;12.690;2023-04-24T12:15:24;1.10;;;1.00;;
16139;SDS011;8175;49.326;12.690;2023-04-24T12:17:50;1.30;;;1.20;;
16139;SDS011;8175;49.326;12.690;2023-04-24T12:20:17;1.40;;;1.30;;
16139;SDS011;8175;49.326;12.690;2023-04-24T12:22:51;1.20;;;1.10;;
16139;SDS011;8175;49.326;12.690;2023-04-24T12:25:22;1.27;;;1.17;;
16139;SDS011;8175;49.326;12.690;2023-04-24T12:27:57;1.30;;;1.20;;
16139;SDS011;8175;49.326;12.690;2023-04-24T12:33:17;3.27;;;1.80;;
16139;SDS011;8175;49.326;12.690;2023-04-24T12:35:44;6.47;;;3.63;;
16139;SDS011;8175;49.326;12.690;2023-04-24T12:38:12;2.23;;;1.70;;
16139;SDS011;8175;49.326;12.690;2023-04-24T12:40:40;2.07;;;1.83;;
16139;SDS011;8175;49.326;12.690;2023-04-24T12:43:16;1.87;;;0.90;;
16139;SDS011;8175;49.326;12.690;2023-04-24T12:45:43;17.83;;;9.03;;
16139;SDS011;8175;49.326;12.690;2023-04-24T12:48:12;1.90;;;1.10;;
16139;SDS011;8175;49.326;12.690;2023-04-24T12:50:41;15.60;;;7.97;;
16139;SDS011;8175;49.326;12.690;2023-04-24T12:53:08;7.97;;;4.90;;
16139;SDS011;8175;49.326;12.690;2023-04-24T12:55:34;1.00;;;1.00;;
16139;SDS011;8175;49.326;12.690;2023-04-24T12:58:00;3.67;;;1.13;;
16139;SDS011;8175;49.326;12.690;2023-04-24T13:00:26;2.73;;;2.10;;
16139;SDS011;8175;49.326;12.690;2023-04-24T13:02:52;2.47;;;1.07;;
16139;SDS011;8175;49.326;12.690;2023-04-24T13:05:18;12.23;;;5.97;;
16139;SDS011;8175;49.326;12.690;2023-04-24T13:07:43;4.60;;;3.00;;
16139;SDS011;8175;49.326;12.690;2023-04-24T13:10:09;1.30;;;1.20;;
16139;SDS011;8175;49.326;12.690;2023-04-24T13:12:35;1.30;;;1.20;;
16139;SDS011;8175;49.326;12.690;2023-04-24T13:15:01;1.87;;;1.30;;
16139;SDS011;8175;49.326;12.690;2023-04-24T13:17:27;2.23;;;1.27;;
16139;SDS011;8175;49.326;12.690;2023-04-24T13:19:53;1.73;;;1.60;;
16139;SDS011;8175;49.326;12.690;2023-04-24T13:22:20;1.43;;;1.33;;
16139;SDS011;8175;49.326;12.690;2023-04-24T13:24:45;1.40;;;1.30;;
16139;SDS011;8175;49.326;12.690;2023-04-24T13:27:13;1.20;;;1.10;;
16139;SDS011;8175;49.326;12.690;2023-04-24T13:29:39;1.07;;;1.03;;
16139;SDS011;8175;49.326;12.690;2023-04-24T13:32:05;1.20;;;1.10;;
16139;SDS011;8175;49.326;12.690;2023-04-24T13:34:31;2.10;;;1.07;;
16139;SDS011;8175;49.326;12.690;2023-04-24T13:36:57;1.40;;;1.20;;
16139;SDS011;8175;49.326;12.690;2023-04-24T13:39:23;2.47;;;1.30;;
16139;SDS011;8175;49.326;12.690;2023-04-24T13:41:50;1.40;;;1.30;;
16139;SDS011;8175;49.326;12.690;2023-04-24T13:44:16;1.50;;;0.97;;
16139;SDS011;8175;49.326;12.690;2023-04-24T13:46:44;1.73;;;1.10;;
16139;SDS011;8175;49.326;12.690;2023-04-24T13:49:13;1.10;;;1.00;;
16139;SDS011;8175;49.326;12.690;2023-04-24T13:51:39;1.57;;;0.90;;
16139;SDS011;8175;49.326;12.690;2023-04-24T13:54:06;1.57;;;1.47;;
16139;SDS011;8175;49.326;12.690;2023-04-24T13:56:31;1.10;;;1.00;;
16139;SDS011;8175;49.326;12.690;2023-04-24T13:58:57;1.30;;;1.20;;
16139;SDS011;8175;49.326;12.690;2023-04-24T14:01:23;1.60;;;1.50;;
16139;SDS011;8175;49.326;12.690;2023-04-24T14:03:52;1.13;;;0.90;;
16139;SDS011;8175;49.326;12.690;2023-04-24T14:06:18;2.23;;;1.50;;
16139;SDS011;8175;49.326;12.690;2023-04-24T14:08:45;1.23;;;1.00;;
16139;SDS011;8175;49.326;12.690;2023-04-24T14:11:11;1.27;;;1.17;;
16139;SDS011;8175;49.326;12.690;2023-04-24T14:13:37;2.40;;;1.23;;
16139;SDS011;8175;49.326;12.690;2023-04-24T14:16:03;2.13;;;1.20;;
16139;SDS011;8175;49.326;12.690;2023-04-24T14:18:29;7.17;;;3.47;;
16139;SDS011;8175;49.326;12.690;2023-04-24T14:20:54;5.23;;;2.77;;
16139;SDS011;8175;49.326;12.690;2023-04-24T14:23:20;1.30;;;1.20;;
16139;SDS011;8175;49.326;12.690;2023-04-24T14:25:46;1.20;;;1.10;;
16139;SDS011;8175;49.326;12.690;2023-04-24T14:28:15;1.10;;;1.00;;
16139;SDS011;8175;49.326;12.690;2023-04-24T14:30:42;1.37;;;0.90;;
16139;SDS011;8175;49.326;12.690;2023-04-24T14:33:07;1.10;;;1.00;;
16139;SDS011;8175;49.326;12.690;2023-04-24T14:35:33;1.00;;;1.00;;
16139;SDS011;8175;49.326;12.690;2023-04-24T14:38:00;2.27;;;1.30;;
16139;SDS011;8175;49.326;12.690;2023-04-24T14:40:26;1.20;;;1.10;;
16139;SDS011;8175;49.326;12.690;2023-04-24T14:42:51;1.03;;;0.93;;
16139;SDS011;8175;49.326;12.690;2023-04-24T14:45:17;2.03;;;1.20;;
16139;SDS011;8175;49.326;12.690;2023-04-24T14:47:44;2.10;;;2.00;;
16139;SDS011;8175;49.326;12.690;2023-04-24T14:50:10;1.17;;;1.07;;
16139;SDS011;8175;49.326;12.690;2023-04-24T14:52:37;2.43;;;2.23;;
16139;SDS011;8175;49.326;12.690;2023-04-24T14:55:03;2.80;;;2.17;;
16139;SDS011;8175;49.326;12.690;2023-04-24T14:57:29;2.83;;;1.50;;
16139;SDS011;8175;49.326;12.690;2023-04-24T14:59:55;1.43;;;1.20;;
16139;SDS011;8175;49.326;12.690;2023-04-24T15:02:21;1.30;;;1.20;;
16139;SDS011;8175;49.326;12.690;2023-04-24T15:04:46;1.40;;;1.30;;
16139;SDS011;8175;49.326;12.690;2023-04-24T15:07:12;1.40;;;1.30;;
16139;SDS011;8175;49.326;12.690;2023-04-24T15:09:38;1.20;;;1.10;;
16139;SDS011;8175;49.326;12.690;2023-04-24T15:12:03;1.10;;;1.00;;
16139;SDS011;8175;49.326;12.690;2023-04-24T15:14:29;1.43;;;1.30;;
16139;SDS011;8175;49.326;12.690;2023-04-24T15:16:55;1.73;;;1.40;;
16139;SDS011;8175;49.326;12.690;2023-04-24T15:19:20;1.77;;;1.23;;
16139;SDS011;8175;49.326;12.690;2023-04-24T15:21:46;1.93;;;1.53;;
16139;SDS011;8175;49.326;12.690;2023-04-24T15:24:12;1.60;;;1.50;;
16139;SDS011;8175;49.326;12.690;2023-04-24T15:26:37;2.77;;;1.00;;
16139;SDS011;8175;49.326;12.690;2023-04-24T15:29:03;1.20;;;1.10;;
16139;SDS011;8175;49.326;12.690;2023-04-24T15:31:29;1.30;;;1.13;;
16139;SDS011;8175;49.326;12.690;2023-04-24T15:33:55;1.00;;;1.00;;
16139;SDS011;8175;49.326;12.690;2023-04-24T15:36:20;1.23;;;1.13;;
16139;SDS011;8175;49.326;12.690;2023-04-24T15:38:46;1.30;;;1.20;;
16139;SDS011;8175;49.326;12.690;2023-04-24T15:41:12;1.30;;;1.20;;
16139;SDS011;8175;49.326;12.690;2023-04-24T15:43:38;1.10;;;1.00;;
16139;SDS011;8175;49.326;12.690;2023-04-24T15:46:06;1.13;;;1.03;;
16139;SDS011;8175;49.326;12.690;2023-04-24T15:48:31;3.23;;;1.30;;
16139;SDS011;8175;49.326;12.690;2023-04-24T15:50:57;1.67;;;1.53;;
16139;SDS011;8175;49.326;12.690;2023-04-24T15:53:23;0.90;;;0.90;;
16139;SDS011;8175;49.326;12.690;2023-04-24T15:55:50;0.87;;;0.87;;
16139;SDS011;8175;49.326;12.690;2023-04-24T15:58:17;1.00;;;1.00;;
16139;SDS011;8175;49.326;12.690;2023-04-24T16:00:44;1.87;;;1.40;;
16139;SDS011;8175;49.326;12.690;2023-04-24T16:03:10;3.87;;;3.43;;
16139;SDS011;8175;49.326;12.690;2023-04-24T16:05:36;3.27;;;1.87;;
16139;SDS011;8175;49.326;12.690;2023-04-24T16:08:01;2.10;;;1.90;;
16139;SDS011;8175;49.326;12.690;2023-04-24T16:10:27;1.80;;;1.70;;
16139;SDS011;8175;49.326;12.690;2023-04-24T16:12:53;1.57;;;1.47;;
16139;SDS011;8175;49.326;12.690;2023-04-24T16:15:19;2.10;;;1.50;;
16139;SDS011;8175;49.326;12.690;2023-04-24T16:17:45;2.67;;;1.67;;
16139;SDS011;8175;49.326;12.690;2023-04-24T16:20:12;1.60;;;1.50;;
16139;SDS011;8175;49.326;12.690;2023-04-24T16:22:38;2.47;;;1.90;;
16139;SDS011;8175;49.326;12.690;2023-04-24T16:25:04;1.67;;;1.57;;
16139;SDS011;8175;49.326;12.690;2023-04-24T16:27:31;1.77;;;1.67;;
16139;SDS011;8175;49.326;12.690;2023-04-24T16:29:57;1.63;;;1.53;;
16139;SDS011;8175;49.326;12.690;2023-04-24T16:32:23;2.43;;;1.50;;
16139;SDS011;8175;49.326;12.690;2023-04-24T16:34:49;1.80;;;1.30;;
16139;SDS011;8175;49.326;12.690;2023-04-24T16:37:15;1.43;;;1.33;;
16139;SDS011;8175;49.326;12.690;2023-04-24T16:39:41;1.57;;;1.47;;
16139;SDS011;8175;49.326;12.690;2023-04-24T16:42:11;1.60;;;1.50;;
16139;SDS011;8175;49.326;12.690;2023-04-24T16:44:37;2.03;;;1.43;;
16139;SDS011;8175;49.326;12.690;2023-04-24T16:47:04;4.30;;;1.30;;
16139;SDS011;8175;49.326;12.690;2023-04-24T16:49:33;1.83;;;1.63;;
16139;SDS011;8175;49.326;12.690;2023-04-24T16:51:59;1.70;;;1.50;;
16139;SDS011;8175;49.326;12.690;2023-04-24T16:54:24;2.37;;;2.00;;
16139;SDS011;8175;49.326;12.690;2023-04-24T16:56:51;1.77;;;1.40;;
16139;SDS011;8175;49.326;12.690;2023-04-24T16:59:17;2.07;;;1.87;;
16139;SDS011;8175;49.326;12.690;2023-04-24T17:01:43;1.40;;;1.30;;
16139;SDS011;8175;49.326;12.690;2023-04-24T17:04:09;3.23;;;2.00;;
16139;SDS011;8175;49.326;12.690;2023-04-24T17:06:35;15.73;;;9.70;;
16139;SDS011;8175;49.326;12.690;2023-04-24T17:09:00;23.43;;;12.80;;
16139;SDS011;8175;49.326;12.690;2023-04-24T17:11:27;3.33;;;2.83;;
16139;SDS011;8175;49.326;12.690;2023-04-24T17:13:53;3.13;;;2.37;;
16139;SDS011;8175;49.326;12.690;2023-04-24T17:16:19;2.90;;;2.30;;
16139;SDS011;8175;49.326;12.690;2023-04-24T17:18:44;2.33;;;2.10;;
16139;SDS011;8175;49.326;12.690;2023-04-24T17:21:10;2.47;;;2.23;;
16139;SDS011;8175;49.326;12.690;2023-04-24T17:23:36;1.70;;;1.50;;
16139;SDS011;8175;49.326;12.690;2023-04-24T17:26:02;1.57;;;1.43;;
16139;SDS011;8175;49.326;12.690;2023-04-24T17:28:31;1.67;;;1.00;;
16139;SDS011;8175;49.326;12.690;2023-04-24T17:30:58;1.97;;;1.87;;
16139;SDS011;8175;49.326;12.690;2023-04-24T17:33:27;9.20;;;5.90;;
16139;SDS011;8175;49.326;12.690;2023-04-24T17:35:57;2.50;;;2.17;;
16139;SDS011;8175;49.326;12.690;2023-04-24T17:38:25;2.23;;;2.03;;
16139;SDS011;8175;49.326;12.690;2023-04-24T17:40:52;1.43;;;1.33;;
16139;SDS011;8175;49.326;12.690;2023-04-24T17:43:21;2.97;;;1.87;;
16139;SDS011;8175;49.326;12.690;2023-04-24T17:45:48;5.50;;;4.23;;
16139;SDS011;8175;49.326;12.690;2023-04-24T17:48:15;4.40;;;3.13;;
16139;SDS011;8175;49.326;12.690;2023-04-24T17:50:42;2.23;;;2.03;;
16139;SDS011;8175;49.326;12.690;2023-04-24T17:53:08;2.57;;;2.00;;
16139;SDS011;8175;49.326;12.690;2023-04-24T17:55:34;3.27;;;2.50;;
16139;SDS011;8175;49.326;12.690;2023-04-24T17:58:00;1.93;;;1.77;;
16139;SDS011;8175;49.326;12.690;2023-04-24T18:00:28;2.03;;;1.60;;
16139;SDS011;8175;49.326;12.690;2023-04-24T18:02:56;1.60;;;1.50;;
16139;SDS011;8175;49.326;12.690;2023-04-24T18:05:34;1.40;;;1.30;;
16139;SDS011;8175;49.326;12.690;2023-04-24T18:08:02;1.97;;;1.60;;
16139;SDS011;8175;49.326;12.690;2023-04-24T18:10:29;1.70;;;1.60;;
16139;SDS011;8175;49.326;12.690;2023-04-24T18:12:56;1.73;;;1.63;;
16139;SDS011;8175;49.326;12.690;2023-04-24T18:15:22;1.67;;;1.57;;
16139;SDS011;8175;49.326;12.690;2023-04-24T18:17:48;7.57;;;5.67;;
16139;SDS011;8175;49.326;12.690;2023-04-24T18:20:15;14.40;;;9.33;;